Disclaimer

Please do not use the information listed here in-flight or in-navigation, as they are not provided to us by the airports but are provided by volunteers, so they might be outdated.

Search


Regions


Airport information page

Radio informations:
Tower (TWR) - 118.1 MHz
INFO - 118.3 MHz
Automatic Terminal Information Service (ATIS) - 122.15 MHz
PRAHA APP - 120.525 MHz

Airport informations:
Latitude: 50° 06' 03.00" N
Longitude: 014° 15' 36.00" E
Elevation: 1247 feet - 380 meters
Operating hours: 24 hour operations
Operating agency: Civil government, landing fees and diplomatic clearance may be required
Timezone: UTC+1(+2DT)
Fuel: Jet A1, without icing nhibitor.

Aviation Gasoline (AVGAS), octane unknown.

Runway information:
04/22 - 6955 x 197 feet< - >2120 x 60 meters
06/24 - 12189 x 148 feet< - >3715 x 45 meters
13/31 - 10663 x 148 feet< - >3250 x 45 meters

Recent METARs:
LKPR 210300Z 08007KT 3000 -FZDZ BR BKN002 OVC003 00/M00 Q1014 NOSIG
LKPR 210330Z 08008KT 3000 -FZDZ BR BKN002 OVC003 00/M00 Q1014 NOSIG
LKPR 210400Z 08008KT 3000 -FZDZ BR BKN002 OVC003 00/00 Q1014 NOSIG

Airport on the map: